Time;durP1;ratioP1;P1;durP2;ratioP2;P2;SDS_P1;SDS_P2;PMS_P1;PMS_P2;Temp;Humidity;BMP_temperature;BMP_pressure;BME280_temperature;BME280_humidity;BME280_pressure;Samples;Min_cycle;Max_cycle;Signal;HPM_P1;HPM_P2
2023/03/19 03:01:07;;;;;;;10.00;9.23;;;9.20;99.90;;;;;;5682558;23;20242;-77
2023/03/19 03:03:34;;;;;;;10.80;10.00;;;9.20;99.90;;;;;;4971029;28;20668;-77
2023/03/19 03:06:01;;;;;;;10.20;9.30;;;9.20;99.90;;;;;;4963162;28;20194;-78
2023/03/19 03:08:28;;;;;;;8.50;7.80;;;9.10;99.90;;;;;;4968109;28;20233;-77
2023/03/19 03:10:55;;;;;;;10.27;9.57;;;9.10;99.90;;;;;;4963181;28;20724;-77
2023/03/19 03:13:22;;;;;;;11.60;10.60;;;9.10;99.90;;;;;;4951320;28;20239;-77
2023/03/19 03:15:48;;;;;;;12.13;11.13;;;9.10;99.90;;;;;;4950160;29;20227;-79
2023/03/19 03:18:18;;;;;;;9.40;8.63;;;9.00;99.90;;;;;;4955722;28;20622;-79
2023/03/19 03:20:45;;;;;;;9.27;8.37;;;9.00;99.90;;;;;;4952443;29;20277;-77
2023/03/19 03:23:12;;;;;;;8.47;7.23;;;9.00;99.90;;;;;;4949908;28;20711;-79
2023/03/19 03:25:39;;;;;;;9.97;8.77;;;9.00;99.90;;;;;;4948471;28;20222;-77
2023/03/19 03:28:06;;;;;;;6.67;6.07;;;9.00;99.90;;;;;;4952390;28;20645;-79
2023/03/19 03:30:33;;;;;;;7.90;7.13;;;9.00;99.90;;;;;;4951513;28;20230;-76
2023/03/19 03:33:00;;;;;;;8.27;7.47;;;8.90;99.90;;;;;;4951196;28;20199;-79
2023/03/19 03:35:28;;;;;;;6.33;4.87;;;9.00;99.90;;;;;;4952674;28;20223;-78
2023/03/19 03:37:55;;;;;;;7.03;5.13;;;9.00;99.90;;;;;;4955205;29;20210;-83
2023/03/19 03:40:21;;;;;;;9.00;8.30;;;9.00;99.90;;;;;;4933904;29;20239;-83
2023/03/19 03:42:49;;;;;;;10.93;5.30;;;9.00;99.90;;;;;;4938754;29;20218;-83
2023/03/19 03:45:16;;;;;;;7.80;4.90;;;9.00;99.90;;;;;;4939454;29;20231;-83
2023/03/19 03:47:45;;;;;;;9.30;7.90;;;8.90;99.90;;;;;;4938893;29;20231;-81
2023/03/19 03:50:12;;;;;;;10.03;9.07;;;8.90;99.90;;;;;;4940377;29;20199;-83
2023/03/19 03:52:41;;;;;;;9.83;9.00;;;8.90;99.90;;;;;;4940682;29;20223;-83
2023/03/19 03:55:09;;;;;;;9.77;8.93;;;8.90;99.90;;;;;;4932706;29;20211;-82
2023/03/19 03:57:37;;;;;;;9.83;8.93;;;9.00;99.90;;;;;;4938306;29;20238;-81
2023/03/19 04:00:04;;;;;;;9.47;8.70;;;9.00;99.90;;;;;;4935388;29;20359;-81
2023/03/19 04:02:40;;;;;;;11.37;10.57;;;9.00;99.90;;;;;;4938844;29;20230;-81
2023/03/19 04:05:08;;;;;;;10.03;9.33;;;9.00;99.90;;;;;;4955115;29;20195;-82
2023/03/19 04:07:35;;;;;;;10.97;9.97;;;9.00;99.90;;;;;;4940932;29;20202;-82
2023/03/19 04:10:04;;;;;;;9.03;8.33;;;9.00;99.90;;;;;;4941100;29;20204;-83
2023/03/19 04:12:31;;;;;;;9.97;9.07;;;9.00;99.90;;;;;;4942240;29;20226;-83
2023/03/19 04:14:58;;;;;;;11.17;10.03;;;9.00;99.90;;;;;;4947984;29;20226;-83
2023/03/19 04:17:25;;;;;;;10.30;9.50;;;9.00;99.90;;;;;;4934570;29;20223;-83
2023/03/19 04:19:52;;;;;;;10.47;9.57;;;9.10;99.90;;;;;;4947840;29;20588;-83
2023/03/19 04:22:19;;;;;;;9.40;8.60;;;9.10;99.90;;;;;;4947282;28;20230;-83
2023/03/19 04:24:45;;;;;;;9.37;8.57;;;9.10;99.90;;;;;;4940787;29;20674;-83
2023/03/19 04:27:14;;;;;;;9.60;8.80;;;9.20;99.90;;;;;;4944102;29;20198;-83
2023/03/19 04:29:41;;;;;;;9.50;8.70;;;9.20;99.90;;;;;;4945350;29;20580;-81
2023/03/19 04:32:08;;;;;;;9.80;8.90;;;9.20;99.90;;;;;;4940747;29;20279;-83
2023/03/19 04:34:36;;;;;;;10.13;9.10;;;9.20;99.90;;;;;;4940874;29;20204;-83
2023/03/19 04:37:03;;;;;;;9.43;8.53;;;9.20;99.90;;;;;;4939090;29;20283;-80
2023/03/19 04:39:32;;;;;;;9.67;8.77;;;9.20;99.90;;;;;;4935885;29;20200;-81
2023/03/19 04:41:59;;;;;;;10.00;8.97;;;9.30;99.90;;;;;;4943360;29;20314;-83
2023/03/19 04:44:37;;;;;;;10.20;9.40;;;9.30;99.90;;;;;;4956894;28;20194;-83
2023/03/19 04:47:04;;;;;;;9.67;8.87;;;9.30;99.90;;;;;;4955300;28;20199;-83
2023/03/19 04:49:41;;;;;;;10.10;8.50;;;9.30;99.90;;;;;;4952221;28;20229;-84
2023/03/19 04:52:09;;;;;;;9.00;8.30;;;9.30;99.90;;;;;;4951669;28;20222;-83
2023/03/19 04:54:36;;;;;;;9.40;8.60;;;9.30;99.90;;;;;;4955572;28;20656;-81
2023/03/19 04:57:03;;;;;;;9.27;8.50;;;9.40;99.90;;;;;;4956289;28;20227;-81
2023/03/19 04:59:36;;;;;;;9.03;8.40;;;9.40;99.90;;;;;;4954919;28;20207;-83
2023/03/19 05:02:04;;;;;;;8.83;8.13;;;9.40;99.90;;;;;;4957095;29;20237;-83
2023/03/19 05:04:33;;;;;;;8.93;8.20;;;9.50;99.90;;;;;;4954459;29;20208;-83
2023/03/19 05:07:06;;;;;;;9.47;8.60;;;9.50;99.90;;;;;;4951171;28;20614;-83
2023/03/19 05:09:33;;;;;;;8.87;8.17;;;9.50;99.90;;;;;;4950841;28;20700;-81
2023/03/19 05:12:00;;;;;;;8.80;8.00;;;9.50;99.90;;;;;;4954797;28;20226;-81
2023/03/19 05:14:29;;;;;;;8.70;8.10;;;9.60;99.90;;;;;;4954666;29;20262;-84
2023/03/19 05:17:27;;;;;;;8.70;7.90;;;9.60;99.90;;;;;;4953782;28;20227;-81
2023/03/19 05:20:14;;;;;;;8.37;7.67;;;9.60;99.90;;;;;;4951068;28;20261;-82
2023/03/19 05:22:47;;;;;;;8.73;8.03;;;9.60;99.90;;;;;;4948996;28;20198;-81
2023/03/19 05:25:16;;;;;;;9.10;8.40;;;9.60;99.90;;;;;;4954268;28;20711;-83
2023/03/19 05:27:45;;;;;;;8.40;7.83;;;9.60;99.90;;;;;;4950083;29;20206;-82
2023/03/19 05:30:18;;;;;;;9.23;8.53;;;9.70;99.90;;;;;;4938456;29;20230;-81
2023/03/19 05:33:03;;;;;;;9.47;8.67;;;9.60;99.90;;;;;;4951772;29;20210;-81
2023/03/19 05:35:35;;;;;;;8.93;8.23;;;9.70;99.90;;;;;;4948954;29;20211;-81
2023/03/19 05:38:03;;;;;;;8.73;8.13;;;9.60;99.90;;;;;;4940602;28;20209;-80
2023/03/19 05:40:30;;;;;;;8.47;7.90;;;9.60;99.90;;;;;;4948296;28;20203;-82
2023/03/19 05:43:00;;;;;;;8.73;8.10;;;9.60;99.90;;;;;;4946902;28;20303;-81
2023/03/19 05:45:28;;;;;;;8.60;8.00;;;9.60;99.90;;;;;;4946199;29;20570;-81
2023/03/19 05:47:59;;;;;;;8.33;7.83;;;9.60;99.90;;;;;;4952827;28;20199;-80
2023/03/19 05:50:28;;;;;;;8.23;7.63;;;9.60;99.90;;;;;;4955174;28;20198;-81
2023/03/19 05:53:16;;;;;;;8.70;8.10;;;9.60;99.90;;;;;;4953665;28;20210;-81
2023/03/19 05:55:51;;;;;;;8.83;8.20;;;9.60;99.90;;;;;;4952198;29;20587;-82
2023/03/19 05:58:18;;;;;;;9.73;9.03;;;9.60;99.90;;;;;;4941988;29;20221;-81
2023/03/19 06:00:47;;;;;;;9.73;8.90;;;9.60;99.90;;;;;;4948929;28;20257;-82
2023/03/19 06:03:14;;;;;;;9.27;8.50;;;9.50;99.90;;;;;;4946542;28;20266;-82
2023/03/19 06:05:52;;;;;;;9.57;8.87;;;9.40;99.90;;;;;;4931043;29;20287;-81
2023/03/19 06:08:36;;;;;;;9.83;8.93;;;9.40;99.90;;;;;;4921682;29;20206;-83
2023/03/19 06:11:26;;;;;;;10.10;9.10;;;9.30;99.90;;;;;;4933450;29;20247;-80
2023/03/19 06:14:11;;;;;;;10.40;9.60;;;9.30;99.90;;;;;;4940598;29;20572;-83
2023/03/19 06:16:40;;;;;;;10.50;9.70;;;9.30;99.90;;;;;;4932938;29;20247;-82
2023/03/19 06:19:08;;;;;;;10.70;9.90;;;9.30;99.90;;;;;;4926453;29;20211;-82
2023/03/19 06:21:36;;;;;;;10.23;9.43;;;9.30;99.90;;;;;;4933252;29;20294;-83
2023/03/19 06:24:04;;;;;;;9.87;9.17;;;9.30;99.90;;;;;;4933039;29;20254;-81
2023/03/19 06:26:36;;;;;;;9.03;8.33;;;9.40;99.90;;;;;;4935753;29;20195;-81
2023/03/19 06:29:08;;;;;;;8.90;8.30;;;9.60;99.90;;;;;;4935501;29;20207;-82
2023/03/19 06:31:38;;;;;;;9.03;8.33;;;9.70;99.90;;;;;;4936372;29;20220;-79
2023/03/19 06:34:19;;;;;;;9.07;8.37;;;9.70;99.90;;;;;;4936290;29;20549;-79
2023/03/19 06:36:48;;;;;;;9.83;9.03;;;9.70;99.90;;;;;;4935505;29;20302;-80
2023/03/19 06:39:17;;;;;;;9.50;8.80;;;9.70;99.90;;;;;;4933758;29;20819;-82
2023/03/19 06:41:44;;;;;;;9.10;8.40;;;9.80;99.90;;;;;;4933311;29;20655;-80
2023/03/19 06:44:16;;;;;;;8.77;8.17;;;9.80;99.90;;;;;;4931707;29;20196;-78
2023/03/19 06:46:43;;;;;;;9.60;8.90;;;9.90;99.90;;;;;;4925741;29;20196;-78
2023/03/19 06:49:09;;;;;;;9.77;9.07;;;10.00;99.90;;;;;;4922765;29;20268;-82
2023/03/19 06:51:36;;;;;;;9.50;8.80;;;10.00;99.90;;;;;;4937795;29;20223;-78
2023/03/19 06:54:04;;;;;;;10.27;9.47;;;10.10;99.90;;;;;;4935306;29;20208;-78
2023/03/19 06:56:31;;;;;;;10.30;9.60;;;10.10;99.90;;;;;;4935021;29;20221;-78
2023/03/19 06:58:58;;;;;;;11.30;10.30;;;10.20;99.90;;;;;;4937298;29;20208;-78
2023/03/19 07:01:25;;;;;;;10.10;9.40;;;10.30;99.90;;;;;;4937307;29;20296;-79
2023/03/19 07:03:52;;;;;;;9.97;9.27;;;10.30;99.90;;;;;;4940158;29;20223;-78
2023/03/19 07:06:18;;;;;;;10.47;9.57;;;10.30;99.90;;;;;;4937450;29;20536;-79
2023/03/19 07:08:45;;;;;;;10.27;9.47;;;10.40;99.90;;;;;;4937969;29;20197;-79
2023/03/19 07:11:15;;;;;;;9.70;9.00;;;10.40;99.90;;;;;;4936789;29;20321;-79
2023/03/19 07:13:42;;;;;;;10.10;9.20;;;10.50;99.90;;;;;;4938674;29;20194;-81
2023/03/19 07:16:09;;;;;;;10.50;9.57;;;10.50;99.90;;;;;;4939634;29;20207;-78
2023/03/19 07:18:36;;;;;;;10.47;9.60;;;10.60;99.90;;;;;;4937590;29;20656;-78
2023/03/19 07:21:03;;;;;;;9.57;8.77;;;10.80;99.90;;;;;;4940033;29;20292;-78
2023/03/19 07:23:30;;;;;;;10.13;9.23;;;10.80;99.90;;;;;;4942617;29;20195;-77
2023/03/19 07:25:57;;;;;;;9.80;9.00;;;10.90;99.90;;;;;;4941649;29;20210;-77
2023/03/19 07:28:25;;;;;;;9.63;8.83;;;11.00;99.90;;;;;;4936616;29;20218;-77
2023/03/19 07:30:52;;;;;;;9.30;8.60;;;11.00;99.90;;;;;;4940955;29;20227;-78
2023/03/19 07:33:19;;;;;;;9.90;9.20;;;11.10;99.90;;;;;;4931219;29;20669;-79
2023/03/19 07:35:46;;;;;;;9.50;8.80;;;11.10;99.90;;;;;;4940042;29;20253;-78
2023/03/19 07:38:13;;;;;;;8.90;8.20;;;11.30;99.90;;;;;;4940334;29;20219;-78
2023/03/19 07:40:40;;;;;;;9.60;8.73;;;11.40;99.90;;;;;;4937044;29;20706;-79
2023/03/19 07:43:07;;;;;;;9.23;8.53;;;11.50;99.90;;;;;;4936877;29;20226;-78
2023/03/19 07:45:35;;;;;;;9.30;8.60;;;11.60;99.90;;;;;;4929203;29;20214;-79
2023/03/19 07:48:02;;;;;;;9.10;8.47;;;11.60;99.90;;;;;;4938119;29;20252;-79
2023/03/19 07:50:29;;;;;;;9.03;8.43;;;11.70;99.90;;;;;;4950608;29;20205;-78
2023/03/19 07:52:56;;;;;;;8.57;7.97;;;11.80;99.90;;;;;;4946505;28;20199;-84
2023/03/19 07:55:23;;;;;;;8.70;8.10;;;11.80;99.90;;;;;;4938665;29;20274;-85
2023/03/19 07:57:50;;;;;;;8.03;7.53;;;11.90;99.90;;;;;;4949862;28;20211;-81
2023/03/19 08:00:18;;;;;;;8.33;7.73;;;12.00;99.90;;;;;;4950629;29;20214;-81
2023/03/19 08:02:46;;;;;;;8.10;7.50;;;12.00;99.90;;;;;;4942756;29;20238;-82
2023/03/19 08:05:13;;;;;;;8.10;7.50;;;12.10;99.90;;;;;;4953930;29;20205;-82
2023/03/19 08:07:40;;;;;;;8.30;7.70;;;12.20;99.90;;;;;;4952267;28;20194;-81
2023/03/19 08:10:08;;;;;;;8.73;7.90;;;12.40;99.90;;;;;;4952069;28;20673;-84
2023/03/19 08:12:39;;;;;;;7.67;7.17;;;12.60;99.90;;;;;;4951737;29;20867;-85
2023/03/19 08:15:08;;;;;;;8.40;7.77;;;12.80;99.90;;;;;;4956613;29;20207;-81
2023/03/19 08:17:37;;;;;;;6.83;6.13;;;13.10;99.90;;;;;;4956567;28;20222;-83
2023/03/19 08:20:08;;;;;;;7.00;6.40;;;13.40;99.90;;;;;;4944017;29;20208;-82
2023/03/19 08:22:35;;;;;;;6.20;5.70;;;13.70;99.90;;;;;;4954905;28;20220;-82
2023/03/19 08:25:02;;;;;;;5.33;4.90;;;13.90;99.90;;;;;;4956064;29;20286;-81
2023/03/19 08:27:30;;;;;;;6.20;5.27;;;14.10;99.90;;;;;;4934151;29;20199;-80
2023/03/19 08:29:58;;;;;;;5.77;5.30;;;14.20;99.90;;;;;;4940228;29;20660;-82
2023/03/19 08:32:24;;;;;;;4.70;4.40;;;14.30;99.90;;;;;;4932401;29;20250;-83
2023/03/19 08:34:51;;;;;;;3.57;3.27;;;14.40;99.90;;;;;;4930099;29;20222;-81
2023/03/19 08:37:19;;;;;;;3.87;3.53;;;14.40;99.90;;;;;;4923843;29;20766;-79
2023/03/19 08:39:46;;;;;;;3.77;3.30;;;14.40;99.90;;;;;;4923913;29;20219;-79
2023/03/19 08:42:13;;;;;;;4.33;4.00;;;14.30;99.90;;;;;;4936520;29;20223;-79
2023/03/19 08:44:40;;;;;;;3.57;3.27;;;14.40;99.90;;;;;;4945262;28;20225;-78
2023/03/19 08:47:07;;;;;;;2.80;2.60;;;14.40;99.90;;;;;;4933564;29;20259;-79
2023/03/19 08:49:34;;;;;;;4.33;3.93;;;14.40;99.90;;;;;;4933668;29;20273;-79
2023/03/19 08:52:01;;;;;;;3.20;3.00;;;14.40;99.90;;;;;;4934466;29;20586;-78
2023/03/19 08:54:29;;;;;;;3.57;2.83;;;14.50;99.90;;;;;;4950660;28;20253;-78
2023/03/19 08:56:56;;;;;;;3.90;3.23;;;14.50;99.90;;;;;;4950830;28;20219;-79
2023/03/19 08:59:23;;;;;;;4.17;2.77;;;14.40;99.90;;;;;;4946693;29;20210;-79
2023/03/19 09:01:51;;;;;;;4.07;2.73;;;14.50;99.90;;;;;;4950289;29;20287;-79
2023/03/19 09:04:18;;;;;;;5.03;2.73;;;14.70;99.90;;;;;;4948563;28;20284;-80
2023/03/19 09:06:45;;;;;;;3.37;2.70;;;14.90;99.90;;;;;;4940979;28;20206;-80
2023/03/19 09:09:12;;;;;;;2.87;2.67;;;15.10;99.90;;;;;;4942190;29;20198;-80
2023/03/19 09:11:43;;;;;;;4.47;2.77;;;15.30;99.90;;;;;;4952894;29;20214;-78
2023/03/19 09:14:10;;;;;;;3.23;2.57;;;15.40;99.90;;;;;;4952966;28;20203;-79
2023/03/19 09:16:37;;;;;;;3.63;2.60;;;15.50;99.90;;;;;;4954477;28;20589;-80
2023/03/19 09:19:04;;;;;;;3.10;2.40;;;15.60;99.90;;;;;;4936899;29;20284;-79
2023/03/19 09:21:30;;;;;;;18.73;4.07;;;15.90;99.90;;;;;;4950883;28;20249;-78
2023/03/19 09:23:57;;;;;;;3.67;2.73;;;16.10;99.90;;;;;;4948418;28;20195;-78
2023/03/19 09:26:24;;;;;;;3.90;2.47;;;16.50;99.90;;;;;;4943977;29;20203;-78
2023/03/19 09:28:52;;;;;;;2.80;2.50;;;16.80;99.90;;;;;;4946634;29;20187;-78
2023/03/19 09:31:19;;;;;;;2.67;2.47;;;17.20;99.90;;;;;;4949937;28;20257;-78
2023/03/19 09:33:46;;;;;;;3.87;2.77;;;17.40;99.90;;;;;;4944038;28;20205;-79
2023/03/19 09:36:13;;;;;;;4.00;2.73;;;17.60;99.90;;;;;;4938433;29;20202;-78
2023/03/19 09:38:40;;;;;;;5.10;3.03;;;17.90;99.90;;;;;;4934228;29;20287;-79
2023/03/19 09:41:10;;;;;;;3.20;2.70;;;17.60;99.90;;;;;;4944794;29;20231;-76
2023/03/19 09:44:06;;;;;;;3.40;2.53;;;17.30;99.90;;;;;;4948969;28;20766;-78
2023/03/19 09:46:42;;;;;;;3.03;2.60;;;17.00;99.90;;;;;;4943841;28;20307;-78
2023/03/19 09:49:16;;;;;;;3.43;2.43;;;17.20;99.90;;;;;;4935722;29;20200;-78
2023/03/19 09:51:47;;;;;;;4.90;2.87;;;17.60;99.90;;;;;;4942261;29;20223;-78
2023/03/19 09:54:24;;;;;;;3.13;2.70;;;18.00;99.90;;;;;;4933941;28;20735;-78
2023/03/19 09:56:51;;;;;;;3.37;2.40;;;18.10;99.90;;;;;;4944695;28;20218;-78
2023/03/19 09:59:18;;;;;;;2.83;2.43;;;18.20;99.90;;;;;;4953170;29;20217;-79
2023/03/19 10:01:53;;;;;;;2.70;2.20;;;18.50;99.90;;;;;;4950247;29;20261;-78
2023/03/19 10:04:35;;;;;;;3.10;2.50;;;18.80;99.90;;;;;;4955195;29;20692;-79
2023/03/19 10:07:14;;;;;;;2.60;2.40;;;19.00;99.90;;;;;;4930490;29;20255;-77
2023/03/19 10:09:52;;;;;;;4.67;2.30;;;19.20;99.90;;;;;;4933192;29;20210;-78
2023/03/19 10:12:42;;;;;;;2.90;2.40;;;19.30;99.90;;;;;;4947987;29;20638;-77
2023/03/19 10:15:28;;;;;;;2.43;2.23;;;19.30;99.90;;;;;;4943366;28;20207;-79
2023/03/19 10:18:03;;;;;;;3.23;2.50;;;19.20;99.90;;;;;;4952506;28;20255;-79
2023/03/19 10:20:38;;;;;;;3.43;2.43;;;19.10;99.90;;;;;;4929382;29;20680;-79
2023/03/19 10:23:35;;;;;;;2.47;2.20;;;19.00;99.90;;;;;;4956812;29;20202;-78
2023/03/19 10:26:06;;;;;;;2.70;2.10;;;19.10;99.90;;;;;;4934837;29;20822;-79
2023/03/19 10:28:32;;;;;;;4.17;2.40;;;19.20;99.90;;;;;;4950326;29;20202;-80
2023/03/19 10:31:13;;;;;;;2.90;2.50;;;19.20;99.90;;;;;;4954993;28;20222;-79
2023/03/19 10:33:45;;;;;;;3.70;2.50;;;19.30;99.90;;;;;;4936849;28;20278;-78
2023/03/19 10:36:13;;;;;;;2.43;2.20;;;19.30;99.90;;;;;;4937875;29;20210;-77
2023/03/19 10:38:41;;;;;;;5.83;2.83;;;19.30;99.90;;;;;;4940280;29;20647;-80
2023/03/19 10:41:38;;;;;;;2.90;2.70;;;19.20;99.90;;;;;;4948233;29;20234;-79
2023/03/19 10:44:12;;;;;;;4.23;3.43;;;19.20;99.90;;;;;;4942568;28;20740;-79
2023/03/19 10:46:39;;;;;;;4.00;3.60;;;19.10;99.90;;;;;;4937642;29;20210;-79
2023/03/19 10:49:11;;;;;;;4.13;3.47;;;18.90;99.90;;;;;;4938702;29;20221;-78
2023/03/19 10:51:39;;;;;;;3.67;3.37;;;18.80;99.90;;;;;;4940061;29;20724;-78
2023/03/19 10:54:21;;;;;;;3.57;3.30;;;18.80;99.90;;;;;;4943309;29;20210;-79
2023/03/19 10:56:49;;;;;;;3.80;3.47;;;18.90;99.90;;;;;;4944068;29;20195;-80
2023/03/19 10:59:25;;;;;;;4.07;3.20;;;19.00;99.90;;;;;;4938967;29;20230;-80
2023/03/19 11:01:57;;;;;;;4.20;3.50;;;19.00;99.90;;;;;;4943073;29;20234;-80
2023/03/19 11:04:28;;;;;;;3.97;3.63;;;19.10;99.90;;;;;;4940784;29;20556;-81
2023/03/19 11:06:56;;;;;;;4.57;4.17;;;19.10;99.90;;;;;;4940161;29;20286;-79
2023/03/19 11:09:31;;;;;;;7.27;6.67;;;19.00;99.90;;;;;;4939079;29;20203;-79
2023/03/19 11:12:05;;;;;;;6.80;6.30;;;19.00;99.90;;;;;;4934577;29;20640;-81
2023/03/19 11:14:36;;;;;;;6.67;6.20;;;19.00;99.90;;;;;;4932820;29;20203;-79
2023/03/19 11:17:06;;;;;;;7.27;6.60;;;19.20;99.90;;;;;;4940280;29;20694;-79
2023/03/19 11:19:40;;;;;;;7.30;6.80;;;19.30;99.90;;;;;;4938034;29;20215;-79
2023/03/19 11:22:16;;;;;;;6.80;6.30;;;19.40;99.90;;;;;;4943369;29;20226;-79
2023/03/19 11:24:51;;;;;;;7.23;6.63;;;19.50;99.90;;;;;;4946933;29;20195;-79
2023/03/19 11:27:19;;;;;;;7.40;6.90;;;19.50;99.90;;;;;;4937640;29;20198;-76
2023/03/19 11:29:46;;;;;;;6.97;6.40;;;19.50;99.90;;;;;;4939538;29;20206;-80
2023/03/19 11:32:28;;;;;;;7.10;6.50;;;19.40;99.90;;;;;;4939369;29;20227;-77
2023/03/19 11:35:01;;;;;;;7.00;6.50;;;19.30;99.90;;;;;;4935523;29;20227;-81
2023/03/19 11:37:38;;;;;;;6.63;6.13;;;19.10;99.90;;;;;;4930456;29;20203;-78
2023/03/19 11:40:12;;;;;;;6.77;6.27;;;19.00;99.90;;;;;;4938691;29;20207;-81
2023/03/19 11:42:55;;;;;;;6.70;6.20;;;19.00;99.90;;;;;;4936282;29;20215;-78
2023/03/19 11:45:31;;;;;;;7.13;6.53;;;19.00;99.90;;;;;;4936618;29;20207;-76
2023/03/19 11:48:12;;;;;;;6.90;6.40;;;19.10;99.90;;;;;;4938848;29;20195;-79
2023/03/19 11:50:49;;;;;;;7.00;6.40;;;19.20;99.90;;;;;;4929867;29;20678;-79
2023/03/19 11:53:23;;;;;;;7.23;6.73;;;19.40;99.90;;;;;;4936039;29;20253;-79
2023/03/19 11:55:56;;;;;;;6.97;6.27;;;19.50;99.90;;;;;;4936676;29;20283;-79
2023/03/19 11:58:56;;;;;;;6.97;6.40;;;19.50;99.90;;;;;;4935783;29;20633;-79
2023/03/19 12:01:42;;;;;;;6.93;6.43;;;19.50;99.90;;;;;;4934085;29;20231;-79
2023/03/19 12:04:36;;;;;;;6.90;6.30;;;19.30;99.90;;;;;;4937849;29;20199;-78
2023/03/19 12:07:14;;;;;;;6.73;6.23;;;19.00;99.90;;;;;;4931769;29;20606;-77
2023/03/19 12:09:49;;;;;;;6.90;6.30;;;18.90;99.90;;;;;;4934290;29;20669;-79
2023/03/19 12:12:23;;;;;;;6.70;6.10;;;19.00;99.90;;;;;;4942799;29;20646;-79
2023/03/19 12:15:01;;;;;;;7.03;6.23;;;19.10;99.90;;;;;;4935083;29;20211;-79
2023/03/19 12:17:42;;;;;;;7.20;6.60;;;19.00;99.90;;;;;;4935103;29;20211;-79
2023/03/19 12:20:23;;;;;;;7.63;6.93;;;18.90;99.90;;;;;;4938758;28;20614;-79
2023/03/19 12:23:00;;;;;;;6.90;6.30;;;18.80;99.90;;;;;;4935872;29;20206;-79
2023/03/19 12:25:41;;;;;;;7.70;7.00;;;18.70;99.90;;;;;;4934261;29;20199;-78
2023/03/19 12:28:16;;;;;;;7.10;6.50;;;18.80;99.90;;;;;;4933043;29;20215;-79
2023/03/19 12:30:48;;;;;;;7.63;6.90;;;19.00;99.90;;;;;;4936157;29;20223;-79
2023/03/19 12:33:29;;;;;;;10.40;9.30;;;19.10;99.90;;;;;;4931815;29;20199;-78
2023/03/19 12:35:58;;;;;;;9.80;8.80;;;19.10;99.90;;;;;;4935643;29;20632;-79
2023/03/19 12:38:31;;;;;;;8.67;7.70;;;19.30;99.90;;;;;;4937049;29;20657;-79
2023/03/19 12:41:02;;;;;;;9.93;8.90;;;19.20;99.90;;;;;;4935662;29;20709;-78
2023/03/19 12:43:35;;;;;;;8.93;8.20;;;19.10;99.90;;;;;;4936126;29;20199;-79
2023/03/19 12:46:09;;;;;;;13.27;11.73;;;18.80;99.90;;;;;;4934183;29;20206;-79
2023/03/19 12:48:41;;;;;;;11.00;9.93;;;18.80;99.90;;;;;;4935558;29;20199;-79
2023/03/19 12:51:12;;;;;;;9.87;8.97;;;18.80;99.90;;;;;;4935585;29;20701;-82
2023/03/19 12:53:46;;;;;;;7.60;6.90;;;18.90;99.90;;;;;;4934464;29;20674;-81
2023/03/19 12:56:19;;;;;;;7.23;6.63;;;18.90;99.90;;;;;;4935136;29;20194;-81
2023/03/19 12:58:53;;;;;;;7.00;6.47;;;18.80;99.90;;;;;;4928381;29;20282;-81
2023/03/19 13:01:25;;;;;;;7.63;7.00;;;18.90;99.90;;;;;;4935209;29;20230;-81
2023/03/19 13:03:56;;;;;;;7.00;6.40;;;18.80;99.90;;;;;;4933930;29;20203;-81
2023/03/19 13:06:28;;;;;;;7.97;7.27;;;18.90;99.90;;;;;;4933981;29;20211;-82
2023/03/19 13:09:01;;;;;;;8.20;7.40;;;18.80;99.90;;;;;;4933926;29;20199;-81
2023/03/19 13:11:39;;;;;;;8.00;7.33;;;18.90;99.90;;;;;;4935003;29;20768;-81
2023/03/19 13:14:15;;;;;;;7.30;6.70;;;18.90;99.90;;;;;;4934255;29;20266;-82
2023/03/19 13:16:48;;;;;;;7.90;7.30;;;18.90;99.90;;;;;;4938435;29;20207;-82
2023/03/19 13:19:22;;;;;;;8.30;7.50;;;19.00;99.90;;;;;;4934094;29;20270;-82
2023/03/19 13:21:51;;;;;;;7.60;7.00;;;18.90;99.90;;;;;;4930512;29;20286;-81
2023/03/19 13:24:25;;;;;;;7.60;7.00;;;18.90;99.90;;;;;;4929975;29;20203;-81
2023/03/19 13:26:52;;;;;;;7.80;7.10;;;18.80;99.90;;;;;;4929393;29;20207;-81
2023/03/19 13:29:21;;;;;;;6.90;6.30;;;18.60;99.90;;;;;;4931661;29;20661;-81
2023/03/19 13:31:49;;;;;;;7.67;6.97;;;18.50;99.90;;;;;;4938406;29;20226;-81
2023/03/19 13:34:24;;;;;;;7.83;7.13;;;18.50;99.90;;;;;;4938660;28;20293;-81
2023/03/19 13:36:54;;;;;;;8.03;7.03;;;18.40;99.90;;;;;;4934523;29;20584;-81
2023/03/19 13:39:27;;;;;;;7.10;6.60;;;18.40;99.90;;;;;;4937310;29;20766;-81
2023/03/19 13:42:23;;;;;;;7.47;6.97;;;18.40;99.90;;;;;;4940342;29;20223;-81
2023/03/19 13:44:53;;;;;;;6.97;6.47;;;18.60;99.90;;;;;;4933001;29;20587;-82
2023/03/19 13:47:43;;;;;;;7.20;6.70;;;18.60;99.90;;;;;;4928483;29;20649;-81
2023/03/19 13:50:30;;;;;;;7.60;7.00;;;18.70;99.90;;;;;;4933542;29;20262;-81
2023/03/19 13:53:21;;;;;;;8.30;6.80;;;18.70;99.90;;;;;;4942276;29;20209;-82
2023/03/19 13:55:57;;;;;;;7.30;6.70;;;18.60;99.90;;;;;;4932446;29;20198;-82
2023/03/19 14:01:32;;;;;;;7.30;6.70;;;18.40;99.90;;;;;;4945666;29;20243;-82
2023/03/19 14:04:02;;;;;;;7.10;6.50;;;18.20;99.90;;;;;;4937329;29;20724;-81
2023/03/19 14:06:35;;;;;;;7.00;6.50;;;18.10;99.90;;;;;;4934081;29;20669;-81
2023/03/19 14:09:03;;;;;;;6.80;6.30;;;17.90;99.90;;;;;;4939257;29;20568;-82
2023/03/19 14:11:35;;;;;;;6.63;6.10;;;17.80;99.90;;;;;;4939425;29;20693;-82
2023/03/19 14:14:03;;;;;;;7.83;7.07;;;17.70;99.90;;;;;;4937580;29;20296;-81
2023/03/19 14:16:35;;;;;;;7.53;6.93;;;17.40;99.90;;;;;;4938207;29;20645;-81
2023/03/19 14:19:04;;;;;;;7.80;7.20;;;17.10;99.90;;;;;;4936529;29;20822;-81
2023/03/19 14:21:40;;;;;;;8.63;7.93;;;16.70;99.90;;;;;;4936988;29;20225;-82
2023/03/19 14:24:34;;;;;;;9.17;8.37;;;16.50;99.90;;;;;;4937154;29;20469;-78
2023/03/19 14:27:13;;;;;;;7.30;5.27;;;16.20;99.90;;;;;;4943487;29;20264;-79
2023/03/19 14:29:43;;;;;;;6.63;6.03;;;15.90;99.90;;;;;;4940838;29;20207;-78
2023/03/19 14:32:15;;;;;;;7.73;7.13;;;15.70;99.90;;;;;;4948352;29;20285;-79
2023/03/19 14:34:44;;;;;;;7.77;7.17;;;15.50;99.90;;;;;;4937780;28;20271;-78
2023/03/19 14:37:21;;;;;;;8.77;8.07;;;15.50;99.90;;;;;;4946737;29;20263;-79
2023/03/19 14:39:54;;;;;;;7.20;6.70;;;15.50;99.90;;;;;;4931243;29;20270;-77
2023/03/19 14:42:26;;;;;;;7.10;6.57;;;15.30;99.90;;;;;;4944601;29;20231;-77
2023/03/19 14:45:40;;;;;;;8.33;7.63;;;15.30;99.90;;;;;;4945915;29;20191;-77
2023/03/19 14:48:24;;;;;;;7.17;6.67;;;15.00;99.90;;;;;;4940728;29;20207;-77
2023/03/19 14:51:19;;;;;;;7.17;6.67;;;14.80;99.90;;;;;;4938163;29;20630;-77
2023/03/19 14:53:50;;;;;;;7.28;6.68;;;14.70;99.90;;;;;;4935895;29;20452;-77
2023/03/19 14:56:21;;;;;;;7.07;6.53;;;14.60;99.90;;;;;;4941063;29;20666;-77
2023/03/19 14:58:54;;;;;;;6.97;6.57;;;14.40;99.90;;;;;;4940338;29;20207;-77
2023/03/19 15:01:23;;;;;;;8.73;8.13;;;14.30;99.90;;;;;;4941115;29;20318;-78
2023/03/19 15:03:56;;;;;;;5.50;5.00;;;14.20;99.90;;;;;;4945007;29;20221;-79
2023/03/19 15:06:23;;;;;;;7.40;6.90;;;14.10;99.90;;;;;;4940789;28;20203;-78
2023/03/19 15:08:51;;;;;;;3.97;2.95;;;14.00;99.90;;;;;;4942506;29;20930;-79
2023/03/19 15:11:36;;;;;;;3.10;2.50;;;14.00;99.90;;;;;;4946549;28;20306;-77
2023/03/19 15:14:36;;;;;;;6.50;6.10;;;14.10;99.90;;;;;;4939321;29;20201;-78
2023/03/19 15:17:11;;;;;;;6.70;6.10;;;14.10;99.90;;;;;;4930344;29;20266;-78
2023/03/19 15:19:39;;;;;;;7.90;7.40;;;14.30;99.90;;;;;;4956278;29;20296;-77
2023/03/19 15:22:13;;;;;;;7.00;6.50;;;14.40;99.90;;;;;;4941182;28;20234;-78
2023/03/19 15:24:40;;;;;;;7.13;6.53;;;14.30;99.90;;;;;;4940124;29;20677;-77
2023/03/19 15:27:20;;;;;;;6.90;6.50;;;14.30;99.90;;;;;;4946042;29;20206;-78
2023/03/19 15:29:47;;;;;;;7.47;6.97;;;14.40;99.90;;;;;;4941854;29;20691;-77
2023/03/19 15:32:30;;;;;;;7.63;6.93;;;14.40;99.90;;;;;;4932251;29;20231;-78
2023/03/19 15:34:57;;;;;;;7.10;6.60;;;14.40;99.90;;;;;;4966416;28;20704;-78
2023/03/19 15:37:25;;;;;;;7.53;6.93;;;14.50;99.90;;;;;;4951880;28;20208;-78
2023/03/19 15:39:55;;;;;;;6.93;6.43;;;14.60;99.90;;;;;;4946548;28;20576;-77
2023/03/19 15:42:25;;;;;;;7.00;6.47;;;14.50;99.90;;;;;;4934915;29;20252;-78
2023/03/19 15:44:56;;;;;;;6.70;6.20;;;14.50;99.90;;;;;;4937657;29;20433;-78
2023/03/19 15:47:28;;;;;;;4.90;4.50;;;14.50;99.90;;;;;;4936931;29;20445;-78
2023/03/19 15:50:00;;;;;;;2.77;2.57;;;14.40;99.90;;;;;;4939299;29;20200;-77
2023/03/19 15:52:32;;;;;;;3.53;2.93;;;14.30;99.90;;;;;;4945826;29;20235;-77
2023/03/19 15:55:00;;;;;;;6.37;5.80;;;14.30;99.90;;;;;;4952752;28;20205;-77
2023/03/19 15:57:28;;;;;;;6.73;6.23;;;14.20;99.90;;;;;;4955398;29;20622;-78
2023/03/19 15:59:56;;;;;;;7.00;6.47;;;14.20;99.90;;;;;;4945930;28;20204;-76
2023/03/19 16:02:28;;;;;;;7.23;6.73;;;14.10;99.90;;;;;;4947924;28;20599;-78
2023/03/19 16:04:55;;;;;;;6.70;6.30;;;14.10;99.90;;;;;;4955228;28;20193;-78
2023/03/19 16:07:25;;;;;;;7.20;6.70;;;14.00;99.90;;;;;;4944629;28;20284;-79
2023/03/19 16:09:53;;;;;;;5.97;5.57;;;14.00;99.90;;;;;;4946075;29;20568;-79
2023/03/19 16:12:37;;;;;;;4.73;4.40;;;13.90;99.90;;;;;;4953328;28;20221;-78
2023/03/19 16:15:23;;;;;;;5.43;5.03;;;13.90;99.90;;;;;;4936479;29;20223;-78